Terminal Aerodrome Forecast
Issued by NWS Upton, NY

Home | Current Version | Previous Version | Text Only | Print | Product List | Glossary On
Versions: 1 2 3 4 5 6 7 8 9 10 11 12 13 14 15 16 17 18 19 20 21 22 23 24 25 26 27 28
000
FTUS41 KOKX 260531
TAFISP
TAF
KISP 260531Z 2606/2706 25012KT P6SM SKC
      TEMPO 2606/2610 3SM BR
     FM261000 29007KT P6SM SCT250
     FM261700 28012G18KT P6SM SCT050 SCT250
     FM262300 28008KT P6SM BKN250
     FM270100 VRB04KT P6SM SCT250=

USA.gov is the U.S. government's official web portal to all federal, state and local government web resources and services.